sensor_id;sensor_type;location;lat;lon;timestamp;P1;durP1;ratioP1;P2;durP2;ratioP2
70126;SDS011;57491;42.694;23.314;2024-03-02T00:01:37;33.50;;;16.60;;
70126;SDS011;57491;42.694;23.314;2024-03-02T00:04:06;36.35;;;16.63;;
70126;SDS011;57491;42.694;23.314;2024-03-02T00:06:34;30.38;;;15.85;;
70126;SDS011;57491;42.694;23.314;2024-03-02T00:09:01;33.28;;;16.73;;
70126;SDS011;57491;42.694;23.314;2024-03-02T00:13:57;31.33;;;14.43;;
70126;SDS011;57491;42.694;23.314;2024-03-02T00:16:24;26.52;;;13.65;;
70126;SDS011;57491;42.694;23.314;2024-03-02T00:19:02;25.10;;;13.90;;
70126;SDS011;57491;42.694;23.314;2024-03-02T00:21:30;32.35;;;15.50;;
70126;SDS011;57491;42.694;23.314;2024-03-02T00:23:58;30.02;;;16.08;;
70126;SDS011;57491;42.694;23.314;2024-03-02T00:26:27;34.20;;;16.58;;
70126;SDS011;57491;42.694;23.314;2024-03-02T00:28:56;29.15;;;16.92;;
70126;SDS011;57491;42.694;23.314;2024-03-02T00:31:23;33.17;;;17.17;;
70126;SDS011;57491;42.694;23.314;2024-03-02T00:33:51;32.75;;;15.13;;
70126;SDS011;57491;42.694;23.314;2024-03-02T00:36:24;29.02;;;14.55;;
70126;SDS011;57491;42.694;23.314;2024-03-02T00:38:53;31.25;;;16.67;;
70126;SDS011;57491;42.694;23.314;2024-03-02T00:41:22;33.05;;;15.93;;
70126;SDS011;57491;42.694;23.314;2024-03-02T00:43:57;28.88;;;15.80;;
70126;SDS011;57491;42.694;23.314;2024-03-02T00:46:27;31.73;;;14.93;;
70126;SDS011;57491;42.694;23.314;2024-03-02T00:48:56;28.58;;;15.35;;
70126;SDS011;57491;42.694;23.314;2024-03-02T00:51:28;30.98;;;16.80;;
70126;SDS011;57491;42.694;23.314;2024-03-02T00:53:58;28.23;;;14.68;;
70126;SDS011;57491;42.694;23.314;2024-03-02T00:56:26;30.80;;;15.48;;
70126;SDS011;57491;42.694;23.314;2024-03-02T00:58:53;25.83;;;14.45;;
70126;SDS011;57491;42.694;23.314;2024-03-02T01:01:21;28.23;;;15.30;;
70126;SDS011;57491;42.694;23.314;2024-03-02T01:03:49;27.90;;;15.65;;
70126;SDS011;57491;42.694;23.314;2024-03-02T01:06:16;34.33;;;16.38;;
70126;SDS011;57491;42.694;23.314;2024-03-02T01:08:45;27.40;;;15.15;;
70126;SDS011;57491;42.694;23.314;2024-03-02T01:11:16;28.52;;;13.52;;
70126;SDS011;57491;42.694;23.314;2024-03-02T01:13:44;24.92;;;12.23;;
70126;SDS011;57491;42.694;23.314;2024-03-02T01:16:11;25.27;;;15.00;;
70126;SDS011;57491;42.694;23.314;2024-03-02T01:18:39;28.75;;;14.27;;
70126;SDS011;57491;42.694;23.314;2024-03-02T01:21:06;24.35;;;13.50;;
70126;SDS011;57491;42.694;23.314;2024-03-02T01:23:34;28.13;;;15.00;;
70126;SDS011;57491;42.694;23.314;2024-03-02T01:26:03;29.38;;;14.75;;
70126;SDS011;57491;42.694;23.314;2024-03-02T01:28:30;28.80;;;13.75;;
70126;SDS011;57491;42.694;23.314;2024-03-02T01:30:57;27.38;;;13.55;;
70126;SDS011;57491;42.694;23.314;2024-03-02T01:33:24;28.27;;;13.17;;
70126;SDS011;57491;42.694;23.314;2024-03-02T01:35:51;28.20;;;12.98;;
70126;SDS011;57491;42.694;23.314;2024-03-02T01:38:19;24.08;;;14.10;;
70126;SDS011;57491;42.694;23.314;2024-03-02T01:40:46;25.00;;;13.20;;
70126;SDS011;57491;42.694;23.314;2024-03-02T01:43:15;25.88;;;13.63;;
70126;SDS011;57491;42.694;23.314;2024-03-02T01:45:42;27.80;;;14.18;;
70126;SDS011;57491;42.694;23.314;2024-03-02T01:48:09;26.20;;;14.55;;
70126;SDS011;57491;42.694;23.314;2024-03-02T01:50:36;31.38;;;16.92;;
70126;SDS011;57491;42.694;23.314;2024-03-02T01:53:05;30.35;;;15.80;;
70126;SDS011;57491;42.694;23.314;2024-03-02T01:55:33;21.75;;;11.93;;
70126;SDS011;57491;42.694;23.314;2024-03-02T01:58:00;20.37;;;11.37;;
70126;SDS011;57491;42.694;23.314;2024-03-02T02:00:29;24.00;;;13.43;;
70126;SDS011;57491;42.694;23.314;2024-03-02T02:02:57;26.95;;;13.00;;
70126;SDS011;57491;42.694;23.314;2024-03-02T02:05:25;25.52;;;13.75;;
70126;SDS011;57491;42.694;23.314;2024-03-02T02:07:52;26.00;;;13.13;;
70126;SDS011;57491;42.694;23.314;2024-03-02T02:10:19;24.63;;;13.18;;
70126;SDS011;57491;42.694;23.314;2024-03-02T02:12:47;26.52;;;13.63;;
70126;SDS011;57491;42.694;23.314;2024-03-02T02:15:24;24.50;;;13.48;;
70126;SDS011;57491;42.694;23.314;2024-03-02T02:17:53;29.85;;;15.65;;
70126;SDS011;57491;42.694;23.314;2024-03-02T02:20:21;27.17;;;15.10;;
70126;SDS011;57491;42.694;23.314;2024-03-02T02:22:56;28.55;;;16.27;;
70126;SDS011;57491;42.694;23.314;2024-03-02T02:25:25;33.10;;;16.15;;
70126;SDS011;57491;42.694;23.314;2024-03-02T02:27:53;36.00;;;17.08;;
70126;SDS011;57491;42.694;23.314;2024-03-02T02:30:20;35.67;;;17.75;;
70126;SDS011;57491;42.694;23.314;2024-03-02T02:32:49;32.47;;;17.02;;
70126;SDS011;57491;42.694;23.314;2024-03-02T02:35:16;31.90;;;16.33;;
70126;SDS011;57491;42.694;23.314;2024-03-02T02:37:43;34.65;;;18.27;;
70126;SDS011;57491;42.694;23.314;2024-03-02T02:40:13;38.40;;;18.23;;
70126;SDS011;57491;42.694;23.314;2024-03-02T02:42:41;32.67;;;17.48;;
70126;SDS011;57491;42.694;23.314;2024-03-02T02:45:08;34.25;;;16.73;;
70126;SDS011;57491;42.694;23.314;2024-03-02T02:47:36;34.17;;;16.15;;
70126;SDS011;57491;42.694;23.314;2024-03-02T02:50:04;28.27;;;17.58;;
70126;SDS011;57491;42.694;23.314;2024-03-02T02:52:37;35.65;;;17.83;;
70126;SDS011;57491;42.694;23.314;2024-03-02T02:55:06;34.08;;;16.08;;
70126;SDS011;57491;42.694;23.314;2024-03-02T02:57:36;30.10;;;17.13;;
70126;SDS011;57491;42.694;23.314;2024-03-02T03:00:05;30.85;;;17.23;;
70126;SDS011;57491;42.694;23.314;2024-03-02T03:02:40;32.38;;;16.65;;
70126;SDS011;57491;42.694;23.314;2024-03-02T03:05:08;34.50;;;17.63;;
70126;SDS011;57491;42.694;23.314;2024-03-02T03:07:35;35.92;;;18.45;;
70126;SDS011;57491;42.694;23.314;2024-03-02T03:10:02;35.92;;;19.30;;
70126;SDS011;57491;42.694;23.314;2024-03-02T03:12:30;29.20;;;16.10;;
70126;SDS011;57491;42.694;23.314;2024-03-02T03:14:59;35.40;;;17.80;;
70126;SDS011;57491;42.694;23.314;2024-03-02T03:17:27;32.22;;;16.55;;
70126;SDS011;57491;42.694;23.314;2024-03-02T03:19:54;34.08;;;17.60;;
70126;SDS011;57491;42.694;23.314;2024-03-02T03:22:21;43.78;;;22.02;;
70126;SDS011;57491;42.694;23.314;2024-03-02T03:24:49;43.40;;;23.10;;
70126;SDS011;57491;42.694;23.314;2024-03-02T03:27:16;52.53;;;28.25;;
70126;SDS011;57491;42.694;23.314;2024-03-02T03:29:43;56.85;;;29.02;;
70126;SDS011;57491;42.694;23.314;2024-03-02T03:32:12;52.67;;;24.83;;
70126;SDS011;57491;42.694;23.314;2024-03-02T03:34:39;54.30;;;25.95;;
70126;SDS011;57491;42.694;23.314;2024-03-02T03:37:07;42.92;;;24.17;;
70126;SDS011;57491;42.694;23.314;2024-03-02T03:39:35;41.47;;;22.73;;
70126;SDS011;57491;42.694;23.314;2024-03-02T03:42:02;41.43;;;22.20;;
70126;SDS011;57491;42.694;23.314;2024-03-02T03:44:29;38.50;;;19.33;;
70126;SDS011;57491;42.694;23.314;2024-03-02T03:46:57;36.13;;;19.67;;
70126;SDS011;57491;42.694;23.314;2024-03-02T03:49:26;34.13;;;17.57;;
70126;SDS011;57491;42.694;23.314;2024-03-02T03:51:53;36.33;;;18.27;;
70126;SDS011;57491;42.694;23.314;2024-03-02T03:54:21;31.35;;;16.95;;
70126;SDS011;57491;42.694;23.314;2024-03-02T03:56:48;36.67;;;18.65;;
70126;SDS011;57491;42.694;23.314;2024-03-02T03:59:15;37.30;;;18.00;;
70126;SDS011;57491;42.694;23.314;2024-03-02T04:01:42;38.87;;;19.83;;
70126;SDS011;57491;42.694;23.314;2024-03-02T04:04:09;33.33;;;18.38;;
70126;SDS011;57491;42.694;23.314;2024-03-02T04:06:38;37.35;;;19.00;;
70126;SDS011;57491;42.694;23.314;2024-03-02T04:09:05;35.80;;;20.83;;
70126;SDS011;57491;42.694;23.314;2024-03-02T04:11:33;38.13;;;20.00;;
70126;SDS011;57491;42.694;23.314;2024-03-02T04:14:00;34.28;;;18.65;;
70126;SDS011;57491;42.694;23.314;2024-03-02T04:16:28;35.47;;;17.90;;
70126;SDS011;57491;42.694;23.314;2024-03-02T04:18:55;36.10;;;18.25;;
70126;SDS011;57491;42.694;23.314;2024-03-02T04:21:22;37.90;;;18.07;;
70126;SDS011;57491;42.694;23.314;2024-03-02T04:23:51;36.15;;;18.65;;
70126;SDS011;57491;42.694;23.314;2024-03-02T04:26:23;34.03;;;17.70;;
70126;SDS011;57491;42.694;23.314;2024-03-02T04:31:18;32.75;;;16.85;;
70126;SDS011;57491;42.694;23.314;2024-03-02T04:33:45;35.22;;;18.23;;
70126;SDS011;57491;42.694;23.314;2024-03-02T04:36:13;41.33;;;20.15;;
70126;SDS011;57491;42.694;23.314;2024-03-02T04:38:40;47.30;;;23.20;;
70126;SDS011;57491;42.694;23.314;2024-03-02T04:41:08;42.85;;;22.17;;
70126;SDS011;57491;42.694;23.314;2024-03-02T04:43:36;41.58;;;21.25;;
70126;SDS011;57491;42.694;23.314;2024-03-02T04:46:03;41.58;;;20.67;;
70126;SDS011;57491;42.694;23.314;2024-03-02T04:48:32;42.70;;;21.05;;
70126;SDS011;57491;42.694;23.314;2024-03-02T04:51:00;40.42;;;21.27;;
70126;SDS011;57491;42.694;23.314;2024-03-02T04:53:27;41.60;;;21.63;;
70126;SDS011;57491;42.694;23.314;2024-03-02T04:55:55;43.83;;;20.30;;
70126;SDS011;57491;42.694;23.314;2024-03-02T04:58:47;39.42;;;19.13;;
70126;SDS011;57491;42.694;23.314;2024-03-02T05:01:14;48.35;;;22.73;;
70126;SDS011;57491;42.694;23.314;2024-03-02T05:03:42;42.15;;;21.75;;
70126;SDS011;57491;42.694;23.314;2024-03-02T05:06:10;46.15;;;22.80;;
70126;SDS011;57491;42.694;23.314;2024-03-02T05:08:37;50.10;;;27.67;;
70126;SDS011;57491;42.694;23.314;2024-03-02T05:11:05;59.07;;;29.43;;
70126;SDS011;57491;42.694;23.314;2024-03-02T05:13:47;53.97;;;26.30;;
70126;SDS011;57491;42.694;23.314;2024-03-02T05:16:14;49.80;;;25.15;;
70126;SDS011;57491;42.694;23.314;2024-03-02T05:18:42;50.63;;;25.95;;
70126;SDS011;57491;42.694;23.314;2024-03-02T05:21:09;51.42;;;25.67;;
70126;SDS011;57491;42.694;23.314;2024-03-02T05:23:37;45.92;;;23.42;;
70126;SDS011;57491;42.694;23.314;2024-03-02T05:26:04;55.27;;;25.17;;
70126;SDS011;57491;42.694;23.314;2024-03-02T05:28:31;52.40;;;24.92;;
70126;SDS011;57491;42.694;23.314;2024-03-02T05:31:00;50.30;;;25.27;;
70126;SDS011;57491;42.694;23.314;2024-03-02T05:33:27;48.88;;;24.58;;
70126;SDS011;57491;42.694;23.314;2024-03-02T05:35:57;49.63;;;25.55;;
70126;SDS011;57491;42.694;23.314;2024-03-02T05:38:24;51.53;;;26.53;;
70126;SDS011;57491;42.694;23.314;2024-03-02T05:40:51;50.67;;;25.00;;
70126;SDS011;57491;42.694;23.314;2024-03-02T05:43:19;45.50;;;23.95;;
70126;SDS011;57491;42.694;23.314;2024-03-02T05:45:46;50.67;;;25.70;;
70126;SDS011;57491;42.694;23.314;2024-03-02T05:48:14;48.30;;;24.27;;
70126;SDS011;57491;42.694;23.314;2024-03-02T05:50:42;46.35;;;23.55;;
70126;SDS011;57491;42.694;23.314;2024-03-02T05:55:38;45.08;;;23.38;;
70126;SDS011;57491;42.694;23.314;2024-03-02T05:58:05;47.30;;;23.43;;
70126;SDS011;57491;42.694;23.314;2024-03-02T06:00:48;49.30;;;24.15;;
70126;SDS011;57491;42.694;23.314;2024-03-02T06:03:16;45.53;;;24.10;;
70126;SDS011;57491;42.694;23.314;2024-03-02T06:05:43;42.13;;;22.42;;
70126;SDS011;57491;42.694;23.314;2024-03-02T06:08:11;49.40;;;25.23;;
70126;SDS011;57491;42.694;23.314;2024-03-02T06:10:38;45.60;;;23.67;;
70126;SDS011;57491;42.694;23.314;2024-03-02T06:13:05;44.38;;;24.48;;
70126;SDS011;57491;42.694;23.314;2024-03-02T06:15:33;46.63;;;24.38;;
70126;SDS011;57491;42.694;23.314;2024-03-02T06:18:01;45.85;;;22.73;;
70126;SDS011;57491;42.694;23.314;2024-03-02T06:20:30;37.47;;;20.20;;
70126;SDS011;57491;42.694;23.314;2024-03-02T06:22:57;40.28;;;18.88;;
70126;SDS011;57491;42.694;23.314;2024-03-02T06:25:25;36.90;;;18.42;;
70126;SDS011;57491;42.694;23.314;2024-03-02T06:27:52;41.25;;;20.52;;
70126;SDS011;57491;42.694;23.314;2024-03-02T06:30:18;41.45;;;19.42;;
70126;SDS011;57491;42.694;23.314;2024-03-02T06:32:45;39.53;;;19.87;;
70126;SDS011;57491;42.694;23.314;2024-03-02T06:35:12;42.28;;;20.38;;
70126;SDS011;57491;42.694;23.314;2024-03-02T06:37:41;47.20;;;21.55;;
70126;SDS011;57491;42.694;23.314;2024-03-02T06:40:09;40.35;;;19.00;;
70126;SDS011;57491;42.694;23.314;2024-03-02T06:45:04;39.63;;;19.00;;
70126;SDS011;57491;42.694;23.314;2024-03-02T06:47:32;38.75;;;19.20;;
70126;SDS011;57491;42.694;23.314;2024-03-02T06:49:59;39.53;;;19.27;;
70126;SDS011;57491;42.694;23.314;2024-03-02T06:52:28;38.40;;;18.38;;
70126;SDS011;57491;42.694;23.314;2024-03-02T06:54:56;40.07;;;20.30;;
70126;SDS011;57491;42.694;23.314;2024-03-02T06:57:23;37.35;;;19.27;;
70126;SDS011;57491;42.694;23.314;2024-03-02T06:59:51;38.45;;;19.15;;
70126;SDS011;57491;42.694;23.314;2024-03-02T07:02:20;44.13;;;20.02;;
70126;SDS011;57491;42.694;23.314;2024-03-02T07:07:16;44.17;;;18.70;;
70126;SDS011;57491;42.694;23.314;2024-03-02T07:09:43;44.63;;;21.60;;
70126;SDS011;57491;42.694;23.314;2024-03-02T07:12:12;42.25;;;21.85;;
70126;SDS011;57491;42.694;23.314;2024-03-02T07:14:39;39.70;;;20.00;;
70126;SDS011;57491;42.694;23.314;2024-03-02T07:17:24;37.97;;;19.42;;
70126;SDS011;57491;42.694;23.314;2024-03-02T07:19:51;45.37;;;21.03;;
70126;SDS011;57491;42.694;23.314;2024-03-02T07:22:19;41.72;;;20.25;;
70126;SDS011;57491;42.694;23.314;2024-03-02T07:24:46;39.65;;;19.48;;
70126;SDS011;57491;42.694;23.314;2024-03-02T07:27:15;36.22;;;18.65;;
70126;SDS011;57491;42.694;23.314;2024-03-02T07:29:43;41.40;;;20.05;;
70126;SDS011;57491;42.694;23.314;2024-03-02T07:32:10;42.70;;;19.75;;
70126;SDS011;57491;42.694;23.314;2024-03-02T07:34:38;43.65;;;19.17;;
70126;SDS011;57491;42.694;23.314;2024-03-02T07:37:05;37.97;;;18.83;;
70126;SDS011;57491;42.694;23.314;2024-03-02T07:39:31;42.05;;;19.98;;
70126;SDS011;57491;42.694;23.314;2024-03-02T07:41:59;37.33;;;18.83;;
70126;SDS011;57491;42.694;23.314;2024-03-02T07:44:28;40.38;;;19.08;;
70126;SDS011;57491;42.694;23.314;2024-03-02T07:46:55;39.15;;;18.38;;
70126;SDS011;57491;42.694;23.314;2024-03-02T07:49:23;31.23;;;16.35;;
70126;SDS011;57491;42.694;23.314;2024-03-02T07:51:51;37.60;;;18.55;;
70126;SDS011;57491;42.694;23.314;2024-03-02T07:54:18;36.15;;;18.17;;
70126;SDS011;57491;42.694;23.314;2024-03-02T07:56:45;34.90;;;16.45;;
70126;SDS011;57491;42.694;23.314;2024-03-02T07:59:13;33.22;;;17.17;;
70126;SDS011;57491;42.694;23.314;2024-03-02T08:01:42;37.88;;;17.38;;
70126;SDS011;57491;42.694;23.314;2024-03-02T08:04:09;37.58;;;16.73;;
70126;SDS011;57491;42.694;23.314;2024-03-02T08:06:37;33.17;;;17.23;;
70126;SDS011;57491;42.694;23.314;2024-03-02T08:09:04;36.55;;;18.48;;
70126;SDS011;57491;42.694;23.314;2024-03-02T08:11:35;35.65;;;16.13;;
70126;SDS011;57491;42.694;23.314;2024-03-02T08:14:02;36.92;;;17.55;;
70126;SDS011;57491;42.694;23.314;2024-03-02T08:16:30;36.22;;;17.35;;
70126;SDS011;57491;42.694;23.314;2024-03-02T08:18:59;37.88;;;17.40;;
70126;SDS011;57491;42.694;23.314;2024-03-02T08:21:26;41.15;;;19.00;;
70126;SDS011;57491;42.694;23.314;2024-03-02T08:23:56;39.17;;;16.92;;
70126;SDS011;57491;42.694;23.314;2024-03-02T08:26:24;37.25;;;19.20;;
70126;SDS011;57491;42.694;23.314;2024-03-02T08:28:54;39.50;;;18.95;;
70126;SDS011;57491;42.694;23.314;2024-03-02T08:31:24;36.67;;;19.42;;
70126;SDS011;57491;42.694;23.314;2024-03-02T08:33:51;39.10;;;18.93;;
70126;SDS011;57491;42.694;23.314;2024-03-02T08:36:20;40.92;;;20.08;;
70126;SDS011;57491;42.694;23.314;2024-03-02T08:38:48;36.17;;;17.42;;
70126;SDS011;57491;42.694;23.314;2024-03-02T08:43:43;40.38;;;18.65;;
70126;SDS011;57491;42.694;23.314;2024-03-02T08:46:10;33.20;;;17.33;;
70126;SDS011;57491;42.694;23.314;2024-03-02T08:48:37;34.95;;;18.63;;
70126;SDS011;57491;42.694;23.314;2024-03-02T08:51:05;35.60;;;17.60;;
70126;SDS011;57491;42.694;23.314;2024-03-02T08:53:36;36.78;;;18.25;;
70126;SDS011;57491;42.694;23.314;2024-03-02T08:56:04;34.53;;;18.02;;
70126;SDS011;57491;42.694;23.314;2024-03-02T09:00:59;41.88;;;20.13;;
70126;SDS011;57491;42.694;23.314;2024-03-02T09:03:26;31.77;;;15.90;;
70126;SDS011;57491;42.694;23.314;2024-03-02T09:05:53;31.88;;;18.35;;
70126;SDS011;57491;42.694;23.314;2024-03-02T09:08:20;36.20;;;19.33;;
70126;SDS011;57491;42.694;23.314;2024-03-02T09:10:49;35.45;;;19.60;;
70126;SDS011;57491;42.694;23.314;2024-03-02T09:13:16;35.22;;;19.35;;
70126;SDS011;57491;42.694;23.314;2024-03-02T09:15:44;36.35;;;20.23;;
70126;SDS011;57491;42.694;23.314;2024-03-02T09:18:11;37.53;;;20.52;;
70126;SDS011;57491;42.694;23.314;2024-03-02T09:20:38;33.97;;;19.60;;
70126;SDS011;57491;42.694;23.314;2024-03-02T09:23:06;38.75;;;19.75;;
70126;SDS011;57491;42.694;23.314;2024-03-02T09:25:33;38.05;;;19.30;;
70126;SDS011;57491;42.694;23.314;2024-03-02T09:28:02;37.88;;;18.65;;
70126;SDS011;57491;42.694;23.314;2024-03-02T09:30:29;32.83;;;18.30;;
70126;SDS011;57491;42.694;23.314;2024-03-02T09:32:58;33.90;;;18.10;;
70126;SDS011;57491;42.694;23.314;2024-03-02T09:35:28;37.15;;;19.45;;
70126;SDS011;57491;42.694;23.314;2024-03-02T09:37:55;35.03;;;18.58;;
70126;SDS011;57491;42.694;23.314;2024-03-02T09:40:22;33.22;;;17.90;;
70126;SDS011;57491;42.694;23.314;2024-03-02T09:42:50;36.78;;;18.98;;
70126;SDS011;57491;42.694;23.314;2024-03-02T09:45:22;36.13;;;19.73;;
70126;SDS011;57491;42.694;23.314;2024-03-02T09:47:50;41.03;;;19.35;;
70126;SDS011;57491;42.694;23.314;2024-03-02T09:50:18;37.25;;;19.33;;
70126;SDS011;57491;42.694;23.314;2024-03-02T09:52:47;35.25;;;18.17;;
70126;SDS011;57491;42.694;23.314;2024-03-02T09:55:15;35.67;;;18.00;;
70126;SDS011;57491;42.694;23.314;2024-03-02T09:57:44;39.08;;;18.58;;
70126;SDS011;57491;42.694;23.314;2024-03-02T10:00:12;38.85;;;18.90;;
70126;SDS011;57491;42.694;23.314;2024-03-02T10:02:41;29.38;;;17.15;;
70126;SDS011;57491;42.694;23.314;2024-03-02T10:05:09;35.03;;;19.30;;
70126;SDS011;57491;42.694;23.314;2024-03-02T10:07:37;38.58;;;19.90;;
70126;SDS011;57491;42.694;23.314;2024-03-02T10:10:14;31.90;;;18.35;;
70126;SDS011;57491;42.694;23.314;2024-03-02T10:15:09;37.90;;;18.57;;
70126;SDS011;57491;42.694;23.314;2024-03-02T10:17:36;35.42;;;18.33;;
70126;SDS011;57491;42.694;23.314;2024-03-02T10:20:24;39.70;;;19.35;;
70126;SDS011;57491;42.694;23.314;2024-03-02T10:22:54;33.33;;;17.10;;
70126;SDS011;57491;42.694;23.314;2024-03-02T10:25:28;44.05;;;20.77;;
70126;SDS011;57491;42.694;23.314;2024-03-02T10:27:57;35.60;;;18.13;;
70126;SDS011;57491;42.694;23.314;2024-03-02T10:30:25;32.75;;;18.13;;
70126;SDS011;57491;42.694;23.314;2024-03-02T10:32:53;31.75;;;16.75;;
70126;SDS011;57491;42.694;23.314;2024-03-02T10:35:21;30.33;;;16.58;;
70126;SDS011;57491;42.694;23.314;2024-03-02T10:37:51;35.00;;;18.92;;
70126;SDS011;57491;42.694;23.314;2024-03-02T10:42:48;31.40;;;16.63;;
70126;SDS011;57491;42.694;23.314;2024-03-02T10:45:16;36.65;;;19.02;;
70126;SDS011;57491;42.694;23.314;2024-03-02T10:47:46;36.03;;;18.95;;
70126;SDS011;57491;42.694;23.314;2024-03-02T10:52:43;35.20;;;18.23;;
70126;SDS011;57491;42.694;23.314;2024-03-02T10:55:10;31.23;;;17.65;;
70126;SDS011;57491;42.694;23.314;2024-03-02T10:57:41;37.20;;;18.85;;
70126;SDS011;57491;42.694;23.314;2024-03-02T11:00:12;35.38;;;18.88;;
70126;SDS011;57491;42.694;23.314;2024-03-02T11:02:42;33.95;;;18.83;;
70126;SDS011;57491;42.694;23.314;2024-03-02T11:05:18;34.78;;;17.75;;
70126;SDS011;57491;42.694;23.314;2024-03-02T11:07:55;38.05;;;18.15;;
70126;SDS011;57491;42.694;23.314;2024-03-02T11:10:28;38.03;;;19.90;;
70126;SDS011;57491;42.694;23.314;2024-03-02T11:13:02;30.67;;;15.73;;
70126;SDS011;57491;42.694;23.314;2024-03-02T11:15:33;37.67;;;19.23;;
70126;SDS011;57491;42.694;23.314;2024-03-02T11:18:03;36.28;;;17.67;;
70126;SDS011;57491;42.694;23.314;2024-03-02T11:20:35;31.65;;;17.95;;
70126;SDS011;57491;42.694;23.314;2024-03-02T11:23:07;37.85;;;19.67;;
70126;SDS011;57491;42.694;23.314;2024-03-02T11:25:35;36.67;;;18.80;;
70126;SDS011;57491;42.694;23.314;2024-03-02T11:28:05;34.20;;;16.92;;
70126;SDS011;57491;42.694;23.314;2024-03-02T11:30:50;32.45;;;17.10;;
70126;SDS011;57491;42.694;23.314;2024-03-02T11:33:24;34.55;;;18.50;;
70126;SDS011;57491;42.694;23.314;2024-03-02T11:35:56;35.67;;;19.40;;
70126;SDS011;57491;42.694;23.314;2024-03-02T11:38:31;32.70;;;17.20;;
70126;SDS011;57491;42.694;23.314;2024-03-02T11:41:00;35.85;;;18.48;;
70126;SDS011;57491;42.694;23.314;2024-03-02T11:43:28;33.90;;;18.17;;
70126;SDS011;57491;42.694;23.314;2024-03-02T11:45:58;35.45;;;18.30;;
70126;SDS011;57491;42.694;23.314;2024-03-02T11:48:26;33.67;;;18.30;;
70126;SDS011;57491;42.694;23.314;2024-03-02T11:50:53;35.17;;;20.10;;
70126;SDS011;57491;42.694;23.314;2024-03-02T11:53:26;36.28;;;18.83;;
70126;SDS011;57491;42.694;23.314;2024-03-02T11:55:56;31.05;;;17.92;;
70126;SDS011;57491;42.694;23.314;2024-03-02T11:58:24;37.30;;;18.92;;
70126;SDS011;57491;42.694;23.314;2024-03-02T12:03:20;34.20;;;17.98;;
70126;SDS011;57491;42.694;23.314;2024-03-02T12:05:50;31.27;;;18.02;;
70126;SDS011;57491;42.694;23.314;2024-03-02T12:08:22;27.48;;;16.48;;
70126;SDS011;57491;42.694;23.314;2024-03-02T12:10:57;34.50;;;18.63;;
70126;SDS011;57491;42.694;23.314;2024-03-02T12:13:26;31.10;;;17.20;;
70126;SDS011;57491;42.694;23.314;2024-03-02T12:15:53;29.20;;;16.05;;
70126;SDS011;57491;42.694;23.314;2024-03-02T12:18:22;32.75;;;18.25;;
70126;SDS011;57491;42.694;23.314;2024-03-02T12:23:21;31.60;;;17.90;;
70126;SDS011;57491;42.694;23.314;2024-03-02T12:25:49;27.73;;;15.73;;
70126;SDS011;57491;42.694;23.314;2024-03-02T12:28:18;28.92;;;15.60;;
70126;SDS011;57491;42.694;23.314;2024-03-02T12:30:46;36.03;;;19.35;;
70126;SDS011;57491;42.694;23.314;2024-03-02T12:33:14;27.65;;;16.70;;
70126;SDS011;57491;42.694;23.314;2024-03-02T12:35:42;30.90;;;18.58;;
70126;SDS011;57491;42.694;23.314;2024-03-02T12:38:09;34.05;;;19.70;;
70126;SDS011;57491;42.694;23.314;2024-03-02T12:40:37;30.27;;;15.48;;
70126;SDS011;57491;42.694;23.314;2024-03-02T12:43:05;32.65;;;16.75;;
70126;SDS011;57491;42.694;23.314;2024-03-02T12:45:34;26.80;;;16.15;;
70126;SDS011;57491;42.694;23.314;2024-03-02T12:48:01;29.15;;;15.77;;
70126;SDS011;57491;42.694;23.314;2024-03-02T12:50:31;29.13;;;15.20;;
70126;SDS011;57491;42.694;23.314;2024-03-02T12:52:59;34.20;;;17.13;;
70126;SDS011;57491;42.694;23.314;2024-03-02T13:00:22;26.85;;;14.00;;
70126;SDS011;57491;42.694;23.314;2024-03-02T13:02:51;29.20;;;15.50;;
70126;SDS011;57491;42.694;23.314;2024-03-02T13:05:19;25.80;;;14.93;;
70126;SDS011;57491;42.694;23.314;2024-03-02T13:07:47;29.98;;;16.00;;
70126;SDS011;57491;42.694;23.314;2024-03-02T13:10:15;26.10;;;16.05;;
70126;SDS011;57491;42.694;23.314;2024-03-02T13:12:43;30.45;;;16.00;;
70126;SDS011;57491;42.694;23.314;2024-03-02T13:15:11;25.75;;;15.38;;
70126;SDS011;57491;42.694;23.314;2024-03-02T13:17:38;28.13;;;16.33;;
70126;SDS011;57491;42.694;23.314;2024-03-02T13:20:08;31.45;;;16.58;;
70126;SDS011;57491;42.694;23.314;2024-03-02T13:22:36;26.55;;;15.77;;
70126;SDS011;57491;42.694;23.314;2024-03-02T13:25:03;28.98;;;16.20;;
70126;SDS011;57491;42.694;23.314;2024-03-02T13:27:31;30.92;;;16.38;;
70126;SDS011;57491;42.694;23.314;2024-03-02T13:29:59;29.80;;;17.40;;
70126;SDS011;57491;42.694;23.314;2024-03-02T13:32:28;32.63;;;17.58;;
70126;SDS011;57491;42.694;23.314;2024-03-02T13:34:55;30.73;;;17.83;;
70126;SDS011;57491;42.694;23.314;2024-03-02T13:37:24;29.75;;;16.17;;
70126;SDS011;57491;42.694;23.314;2024-03-02T13:39:51;29.55;;;17.27;;
70126;SDS011;57491;42.694;23.314;2024-03-02T13:42:19;26.23;;;17.02;;
70126;SDS011;57491;42.694;23.314;2024-03-02T13:44:46;23.73;;;14.30;;
70126;SDS011;57491;42.694;23.314;2024-03-02T13:47:16;26.30;;;15.23;;
70126;SDS011;57491;42.694;23.314;2024-03-02T13:49:43;27.73;;;16.58;;
70126;SDS011;57491;42.694;23.314;2024-03-02T13:52:14;24.17;;;14.82;;
70126;SDS011;57491;42.694;23.314;2024-03-02T13:54:45;24.92;;;14.88;;
70126;SDS011;57491;42.694;23.314;2024-03-02T13:57:13;24.40;;;14.90;;
70126;SDS011;57491;42.694;23.314;2024-03-02T13:59:42;27.05;;;15.82;;
70126;SDS011;57491;42.694;23.314;2024-03-02T14:04:38;23.60;;;13.45;;
70126;SDS011;57491;42.694;23.314;2024-03-02T14:09:34;24.77;;;15.27;;
70126;SDS011;57491;42.694;23.314;2024-03-02T14:12:03;22.50;;;15.30;;
70126;SDS011;57491;42.694;23.314;2024-03-02T14:14:32;26.40;;;15.45;;
70126;SDS011;57491;42.694;23.314;2024-03-02T14:16:59;27.35;;;15.60;;
70126;SDS011;57491;42.694;23.314;2024-03-02T14:19:30;24.80;;;15.27;;
70126;SDS011;57491;42.694;23.314;2024-03-02T14:21:57;26.20;;;15.07;;
70126;SDS011;57491;42.694;23.314;2024-03-02T14:24:24;31.92;;;17.08;;
70126;SDS011;57491;42.694;23.314;2024-03-02T14:26:53;26.02;;;15.68;;
70126;SDS011;57491;42.694;23.314;2024-03-02T14:29:24;25.67;;;14.48;;
70126;SDS011;57491;42.694;23.314;2024-03-02T14:31:51;27.80;;;16.88;;
70126;SDS011;57491;42.694;23.314;2024-03-02T14:34:18;30.90;;;16.88;;
70126;SDS011;57491;42.694;23.314;2024-03-02T14:36:46;36.72;;;19.17;;
70126;SDS011;57491;42.694;23.314;2024-03-02T14:41:41;28.80;;;16.30;;
70126;SDS011;57491;42.694;23.314;2024-03-02T14:44:08;27.63;;;17.50;;
70126;SDS011;57491;42.694;23.314;2024-03-02T14:46:37;28.92;;;16.13;;
70126;SDS011;57491;42.694;23.314;2024-03-02T14:49:07;27.58;;;16.70;;
70126;SDS011;57491;42.694;23.314;2024-03-02T14:51:36;29.58;;;17.85;;
70126;SDS011;57491;42.694;23.314;2024-03-02T14:54:03;29.90;;;16.90;;
70126;SDS011;57491;42.694;23.314;2024-03-02T14:56:31;33.35;;;17.77;;
70126;SDS011;57491;42.694;23.314;2024-03-02T14:58:58;43.00;;;19.13;;